Terminal Aerodrome Forecast
Issued by NWS Central Illinois

Home | Current Version | Previous Version | Text Only | Print | Product List | Glossary On
Versions: 1 2 3 4 5 6 7 8 9 10 11 12 13 14 15 16 17
000
FTUS43 KILX 011700 RRA
TAFSPI
TAF
KSPI 011741Z 0118/0218 26012G17KT P6SM SCT035 BKN150
     FM012300 26008KT P6SM VCTS SCT035CB BKN150
     FM020500 26008KT 5SM -RA BR VCTS BKN035CB
     FM021100 VRB05KT P6SM BKN150=

USA.gov is the U.S. government's official web portal to all federal, state and local government web resources and services.